KMHE/MHE METAR and TAF weather

Enter ICAO airport designator
Station Type Date Time Source
KMHE METAR 2022/01/19 18:53 UTC NOAA

KMHE 191853Z AUTO 33017G22KT 10SM CLR M14/M22 A3059 RMK AO2 PK WND 32027/1841 SLP391 T11391217


Station Type Date Time Source
KMHE Decoded METAR 2022/01/19 18:53 UTC NOAA

MITCHELL MUNICIPAL AIRPORT, SD, United States (KMHE) 43-46N 98-02W
Jan 19, 2022 - 01:53 PM EST / 2022.01.19 1853 UTC
Wind: from the NNW (330 degrees) at 20 MPH (17 KT) gusting to 25 MPH (22 KT):0
Visibility: 10 mile(s):0
Sky conditions: clear
Temperature: 7.0 F (-13.9 C)
Windchill: -13 F (-25 C):2
Dew Point: -7.1 F (-21.7 C)
Relative Humidity: 51%
Pressure (altimeter): 30.59 in. Hg (1035 hPa)
ob: KMHE 191853Z AUTO 33017G22KT 10SM CLR M14/M22 A3059 RMK AO2 PK WND 32027/1841 SLP391 T11391217
cycle: 19

Station Type Date Time Source
KMHE TAF UTC NOAA

Error!

Example: see airport list